createdAt,value
2022-11-09T00:00:12.659Z,100203.47
2022-11-09T00:02:43.846Z,100200.50
2022-11-09T00:05:12.940Z,100203.75
2022-11-09T00:07:40.403Z,100202.63
2022-11-09T00:10:08.446Z,100194.78
2022-11-09T00:12:35.933Z,100189.38
2022-11-09T00:15:03.433Z,100185.88
2022-11-09T00:17:30.899Z,100181.56
2022-11-09T00:19:58.344Z,100191.28
2022-11-09T00:22:27.162Z,100192.91
2022-11-09T00:24:54.663Z,100187.19
2022-11-09T00:27:22.148Z,100193.47
2022-11-09T00:29:49.623Z,100195.03
2022-11-09T00:32:17.050Z,100172.66
2022-11-09T00:34:45.036Z,100178.88
2022-11-09T00:37:12.528Z,100166.69
2022-11-09T00:39:41.372Z,100177.75
2022-11-09T00:42:08.879Z,100167.22
2022-11-09T00:44:36.331Z,100180.22
2022-11-09T00:47:03.807Z,100170.22
2022-11-09T00:49:31.279Z,100168.28
2022-11-09T00:51:58.753Z,100175.66
2022-11-09T00:54:26.219Z,100167.53
2022-11-09T00:56:55.108Z,100167.47
2022-11-09T00:59:22.551Z,100164.00
2022-11-09T01:01:50.011Z,100167.75
2022-11-09T01:04:17.507Z,100160.78
2022-11-09T01:06:45.037Z,100153.16
2022-11-09T01:09:13.572Z,100161.28
2022-11-09T01:11:41.104Z,100162.34
2022-11-09T01:14:10.156Z,100172.41
2022-11-09T01:16:37.975Z,100157.03
2022-11-09T01:19:05.571Z,100154.03
2022-11-09T01:21:33.049Z,100157.31
2022-11-09T01:24:01.600Z,100157.78
2022-11-09T01:26:29.558Z,100148.34
2022-11-09T01:28:57.022Z,100147.81
2022-11-09T01:31:26.212Z,100139.44
2022-11-09T01:33:53.779Z,100134.03
2022-11-09T01:36:23.722Z,100132.97
2022-11-09T01:38:51.564Z,100130.28
2022-11-09T01:41:21.082Z,100133.75
2022-11-09T01:44:04.698Z,100139.72
2022-11-09T01:46:36.508Z,100137.03
2022-11-09T01:49:08.063Z,100135.13
2022-11-09T01:51:38.315Z,100143.25
2022-11-09T01:54:07.855Z,100131.84
2022-11-09T01:56:35.352Z,100130.25
2022-11-09T01:59:05.281Z,100132.13
2022-11-09T02:01:34.203Z,100129.72
2022-11-09T02:04:05.413Z,100135.13
2022-11-09T02:06:33.777Z,100133.47
2022-11-09T02:09:06.951Z,100131.31
2022-11-09T02:11:36.159Z,100124.06
2022-11-09T02:14:03.959Z,100123.53
2022-11-09T02:16:31.452Z,100123.22
2022-11-09T02:19:01.740Z,100108.66
2022-11-09T02:21:31.915Z,100107.84
2022-11-09T02:24:00.118Z,100114.03
2022-11-09T02:26:31.107Z,100114.56
2022-11-09T02:28:59.723Z,100115.13
2022-11-09T02:31:30.594Z,100112.09
2022-11-09T02:34:04.063Z,100107.22
2022-11-09T02:36:32.895Z,100119.41
2022-11-09T02:39:00.404Z,100113.50
2022-11-09T02:41:28.823Z,100111.59
2022-11-09T02:43:56.310Z,100111.84
2022-11-09T02:46:32.924Z,100105.09
2022-11-09T02:49:00.732Z,100104.84
2022-11-09T02:51:31.421Z,100119.34
2022-11-09T02:54:00.289Z,100109.63
2022-11-09T02:56:27.816Z,100118.88
2022-11-09T02:58:55.579Z,100121.53
2022-11-09T03:01:23.272Z,100112.84
2022-11-09T03:03:50.989Z,100114.25
2022-11-09T03:06:18.511Z,100115.56
2022-11-09T03:08:46.169Z,100110.72
2022-11-09T03:11:15.076Z,100107.44
2022-11-09T03:13:42.647Z,100113.41
2022-11-09T03:16:10.620Z,100117.47
2022-11-09T03:18:40.382Z,100122.66
2022-11-09T03:21:09.741Z,100117.66
2022-11-09T03:23:37.272Z,100123.16
2022-11-09T03:26:04.984Z,100120.66
2022-11-09T03:28:33.967Z,100116.88
2022-11-09T03:31:01.559Z,100123.63
2022-11-09T03:33:29.646Z,100129.91
2022-11-09T03:35:57.251Z,100121.25
2022-11-09T03:38:24.874Z,100130.47
2022-11-09T03:40:52.461Z,100125.00
2022-11-09T03:43:20.272Z,100120.41
2022-11-09T03:45:49.605Z,100132.88
2022-11-09T03:48:17.249Z,100126.94
2022-11-09T03:50:44.771Z,100133.69
2022-11-09T03:53:12.758Z,100129.38
2022-11-09T03:55:40.867Z,100130.72
2022-11-09T03:58:10.502Z,100126.41
2022-11-09T04:00:38.032Z,100132.88
2022-11-09T04:03:06.811Z,100123.16
2022-11-09T04:05:34.286Z,100120.16
2022-11-09T04:08:02.989Z,100123.16
2022-11-09T04:10:30.439Z,100116.44
2022-11-09T04:12:58.411Z,100118.81
2022-11-09T04:15:25.862Z,100126.09
2022-11-09T04:17:57.606Z,100126.94
2022-11-09T04:20:26.595Z,100122.31
2022-11-09T04:22:57.761Z,100128.56
2022-11-09T04:25:25.839Z,100123.34
2022-11-09T04:27:56.821Z,100125.00
2022-11-09T04:30:24.770Z,100120.16
2022-11-09T04:32:52.269Z,100115.03
2022-11-09T04:35:19.726Z,100126.31
2022-11-09T04:37:55.879Z,100117.75
2022-11-09T04:40:23.774Z,100114.53
2022-11-09T04:42:51.546Z,100120.69
2022-11-09T04:45:19.228Z,100114.72
2022-11-09T04:47:46.689Z,100121.59
2022-11-09T04:50:14.397Z,100116.97
2022-11-09T04:52:41.956Z,100114.56
2022-11-09T04:55:10.893Z,100118.88
2022-11-09T04:57:38.408Z,100119.97
2022-11-09T05:00:07.165Z,100109.69
2022-11-09T05:02:34.628Z,100119.38
2022-11-09T05:05:02.087Z,100112.59
2022-11-09T05:07:29.544Z,100127.56
2022-11-09T05:09:57.019Z,100114.88
2022-11-09T05:12:25.787Z,100122.72
2022-11-09T05:14:53.263Z,100125.06
2022-11-09T05:17:20.687Z,100137.78
2022-11-09T05:19:49.592Z,100141.22
2022-11-09T05:22:44.923Z,100141.00
2022-11-09T05:25:12.548Z,100134.00
2022-11-09T05:27:41.322Z,100137.28
2022-11-09T05:30:09.771Z,100138.91
2022-11-09T05:32:39.351Z,100127.84
2022-11-09T05:35:07.909Z,100136.16
2022-11-09T05:37:35.448Z,100141.88
2022-11-09T05:40:02.902Z,100126.47
2022-11-09T05:42:30.337Z,100130.31
2022-11-09T05:45:15.050Z,100120.00
2022-11-09T05:47:46.638Z,100133.50
2022-11-09T05:50:16.845Z,100130.78
2022-11-09T05:52:44.403Z,100129.97
2022-11-09T05:55:11.859Z,100136.50
2022-11-09T05:57:39.284Z,100140.03
2022-11-09T06:00:11.085Z,100135.44
2022-11-09T06:02:38.779Z,100144.38
2022-11-09T06:05:06.652Z,100140.34
2022-11-09T06:07:34.207Z,100135.75
2022-11-09T06:10:03.899Z,100132.53
2022-11-09T06:12:31.786Z,100124.16
2022-11-09T06:14:59.271Z,100120.09
2022-11-09T06:17:28.042Z,100119.03
2022-11-09T06:19:55.587Z,100132.56
2022-11-09T06:22:23.093Z,100135.22
2022-11-09T06:24:50.617Z,100133.28
2022-11-09T06:27:18.251Z,100135.22
2022-11-09T06:29:45.931Z,100146.03
2022-11-09T06:32:13.442Z,100150.59
2022-11-09T06:34:43.162Z,100156.25
2022-11-09T06:37:10.677Z,100153.28
2022-11-09T06:39:38.195Z,100157.09
2022-11-09T06:42:05.727Z,100156.03
2022-11-09T06:44:33.265Z,100165.75
2022-11-09T06:47:00.767Z,100164.97
2022-11-09T06:49:28.363Z,100168.75
2022-11-09T06:51:57.328Z,100179.78
2022-11-09T06:54:24.820Z,100179.50
2022-11-09T06:56:54.817Z,100182.72
2022-11-09T06:59:22.427Z,100184.34
2022-11-09T07:01:50.129Z,100182.75
2022-11-09T07:04:17.649Z,100179.84
2022-11-09T07:06:45.278Z,100183.84
2022-11-09T07:09:14.141Z,100190.84
2022-11-09T07:11:41.600Z,100188.41
2022-11-09T07:14:09.145Z,100191.91
2022-11-09T07:16:37.352Z,100198.66
2022-11-09T07:19:04.823Z,100202.75
2022-11-09T07:21:32.296Z,100198.94
2022-11-09T07:23:59.827Z,100215.16
2022-11-09T07:26:28.652Z,100213.22
2022-11-09T07:28:56.128Z,100208.41
2022-11-09T07:31:23.628Z,100208.91
2022-11-09T07:33:51.284Z,100219.16
2022-11-09T07:36:21.634Z,100212.94
2022-11-09T07:38:49.383Z,100217.84
2022-11-09T07:41:16.867Z,100225.38
2022-11-09T07:43:45.730Z,100226.13
2022-11-09T07:46:13.233Z,100222.13
2022-11-09T07:48:40.715Z,100214.06
2022-11-09T07:51:08.224Z,100217.84
2022-11-09T07:53:35.736Z,100214.34
2022-11-09T07:56:04.497Z,100221.06
2022-11-09T07:58:32.757Z,100223.00
2022-11-09T08:01:01.651Z,100223.78
2022-11-09T08:03:29.103Z,100227.78
2022-11-09T08:05:57.947Z,100227.00
2022-11-09T08:08:25.534Z,100229.72
2022-11-09T08:10:53.072Z,100228.59
2022-11-09T08:13:21.359Z,100223.22
2022-11-09T08:15:49.365Z,100226.38
2022-11-09T08:18:20.858Z,100225.06
2022-11-09T08:20:48.663Z,100231.53
2022-11-09T08:23:18.630Z,100235.03
2022-11-09T08:25:46.132Z,100233.09
2022-11-09T08:28:15.158Z,100236.66
2022-11-09T08:30:43.213Z,100228.53
2022-11-09T08:33:11.248Z,100223.13
2022-11-09T08:35:41.237Z,100218.00
2022-11-09T08:38:08.681Z,100222.31
2022-11-09T08:40:36.203Z,100220.97
2022-11-09T08:43:05.373Z,100231.53
2022-11-09T08:45:34.647Z,100246.09
2022-11-09T08:48:02.929Z,100248.50
2022-11-09T08:50:32.063Z,100252.00
2022-11-09T08:53:01.217Z,100255.00
2022-11-09T08:55:28.688Z,100251.75
2022-11-09T08:57:57.122Z,100256.03
2022-11-09T09:00:24.831Z,100261.16
2022-11-09T09:02:52.481Z,100256.56
2022-11-09T09:05:19.952Z,100255.72
2022-11-09T09:07:47.459Z,100259.03
2022-11-09T09:10:16.351Z,100258.19
2022-11-09T09:12:43.905Z,100257.91
2022-11-09T09:15:11.738Z,100262.53
2022-11-09T09:17:39.212Z,100261.47
2022-11-09T09:20:07.923Z,100259.84
2022-11-09T09:22:35.693Z,100259.88
2022-11-09T09:25:03.459Z,100261.00
2022-11-09T09:27:32.332Z,100260.22
2022-11-09T09:29:59.931Z,100269.38
2022-11-09T09:32:27.526Z,100274.50
2022-11-09T09:34:55.067Z,100272.06
2022-11-09T09:37:22.732Z,100276.38
2022-11-09T09:39:50.260Z,100275.59
2022-11-09T09:42:20.536Z,100278.84
2022-11-09T09:44:54.132Z,100271.25
2022-11-09T09:47:24.788Z,100275.28
2022-11-09T09:49:56.045Z,100273.91
2022-11-09T09:52:30.212Z,100279.81
2022-11-09T09:55:00.944Z,100283.63
2022-11-09T09:57:29.791Z,100275.50
2022-11-09T10:00:01.920Z,100282.69
2022-11-09T10:02:30.644Z,100291.63
2022-11-09T10:05:00.729Z,100291.84
2022-11-09T10:07:31.741Z,100286.16
2022-11-09T10:10:14.536Z,100296.25
2022-11-09T10:12:52.927Z,100288.94
2022-11-09T10:15:26.723Z,100288.38
2022-11-09T10:18:03.573Z,100288.31
2022-11-09T10:20:42.160Z,100280.09
2022-11-09T10:23:29.782Z,100287.75
2022-11-09T10:26:05.554Z,100282.59
2022-11-09T10:28:54.733Z,100281.28
2022-11-09T10:31:31.504Z,100273.94
2022-11-09T10:34:03.677Z,100284.47
2022-11-09T10:36:38.120Z,100272.50
2022-11-09T10:39:05.694Z,100271.69
2022-11-09T10:41:36.259Z,100269.59
2022-11-09T10:44:03.773Z,100270.41
2022-11-09T10:47:07.141Z,100262.75
2022-11-09T10:49:35.043Z,100262.91
2022-11-09T10:52:02.963Z,100253.38
2022-11-09T10:54:33.640Z,100266.09
2022-11-09T10:57:06.960Z,100269.91
2022-11-09T10:59:45.670Z,100259.81
2022-11-09T11:02:41.733Z,100257.97
2022-11-09T11:05:29.092Z,100256.31
2022-11-09T11:07:56.839Z,100250.44
2022-11-09T11:10:24.902Z,100258.25
2022-11-09T11:12:58.293Z,100257.66
2022-11-09T11:15:27.407Z,100262.47
2022-11-09T11:18:03.069Z,100254.38
2022-11-09T11:20:32.132Z,100253.00
2022-11-09T11:23:12.677Z,100250.50
2022-11-09T11:25:55.885Z,100256.50
2022-11-09T11:28:30.063Z,100259.47
2022-11-09T11:30:57.637Z,100253.16
2022-11-09T11:33:26.680Z,100255.69
2022-11-09T11:35:57.420Z,100247.78
2022-11-09T11:38:30.099Z,100249.53
2022-11-09T11:41:03.692Z,100242.41
2022-11-09T11:43:39.285Z,100262.28
2022-11-09T11:46:15.619Z,100253.09
2022-11-09T11:49:06.055Z,100264.41
2022-11-09T11:51:40.719Z,100252.75
2022-11-09T11:54:15.627Z,100255.22
2022-11-09T11:56:45.943Z,100261.91
2022-11-09T11:59:29.755Z,100254.19
2022-11-09T12:02:09.227Z,100246.91
2022-11-09T12:04:54.140Z,100259.06
2022-11-09T12:07:28.700Z,100258.84
2022-11-09T12:10:08.335Z,100252.59
2022-11-09T12:12:41.832Z,100254.03
2022-11-09T12:15:33.003Z,100253.34
2022-11-09T12:18:09.487Z,100255.00
2022-11-09T12:20:45.140Z,100245.28
2022-11-09T12:23:22.569Z,100247.38
2022-11-09T12:25:57.848Z,100256.34
2022-11-09T12:28:35.957Z,100252.81
2022-11-09T12:31:13.028Z,100249.84
2022-11-09T12:33:45.170Z,100259.31
2022-11-09T12:36:17.938Z,100254.38
2022-11-09T12:38:54.147Z,100249.84
2022-11-09T12:41:23.598Z,100244.84
2022-11-09T12:43:55.461Z,100247.56
2022-11-09T12:46:28.179Z,100260.03
2022-11-09T12:48:56.574Z,100260.09
2022-11-09T12:51:25.664Z,100249.53
2022-11-09T12:53:53.273Z,100253.91
2022-11-09T12:56:25.804Z,100249.34
2022-11-09T12:58:53.393Z,100261.66
2022-11-09T13:01:45.026Z,100248.72
2022-11-09T13:04:17.457Z,100252.72
2022-11-09T13:07:39.356Z,100246.72
2022-11-09T13:10:25.217Z,100249.78
2022-11-09T13:13:02.916Z,100252.09
2022-11-09T13:15:32.412Z,100257.00
2022-11-09T13:18:03.664Z,100255.69
2022-11-09T13:20:55.442Z,100251.09
2022-11-09T13:24:00.097Z,100251.81
2022-11-09T13:26:57.120Z,100256.75
2022-11-09T13:29:26.892Z,100261.66
2022-11-09T13:32:18.072Z,100255.03
2022-11-09T13:34:47.506Z,100260.50
2022-11-09T13:37:37.678Z,100266.84
2022-11-09T13:40:38.486Z,100273.06
2022-11-09T13:43:15.456Z,100263.94
2022-11-09T13:45:46.003Z,100266.25
2022-11-09T13:48:28.298Z,100269.00
2022-11-09T13:50:56.814Z,100267.97
2022-11-09T13:53:29.655Z,100276.31
2022-11-09T13:55:57.429Z,100273.59
2022-11-09T13:58:29.900Z,100284.13
2022-11-09T14:00:57.451Z,100285.22
2022-11-09T14:03:26.323Z,100292.66
2022-11-09T14:05:55.991Z,100285.75
2022-11-09T14:08:25.087Z,100294.53
2022-11-09T14:11:09.569Z,100295.38
2022-11-09T14:13:51.564Z,100296.44
2022-11-09T14:16:26.447Z,100296.38
2022-11-09T14:19:04.618Z,100305.34
2022-11-09T14:21:40.492Z,100304.53
2022-11-09T14:24:16.204Z,100311.31
2022-11-09T14:27:06.331Z,100304.88
2022-11-09T14:29:35.431Z,100299.97
2022-11-09T14:32:04.044Z,100305.97
2022-11-09T14:34:31.626Z,100311.13
2022-11-09T14:37:04.547Z,100315.97
2022-11-09T14:39:34.267Z,100314.38
2022-11-09T14:42:02.044Z,100317.13
2022-11-09T14:44:32.231Z,100324.63
2022-11-09T14:47:01.304Z,100327.63
2022-11-09T14:49:29.046Z,100322.78
2022-11-09T14:51:56.587Z,100319.53
2022-11-09T14:54:26.272Z,100327.97
2022-11-09T14:56:54.689Z,100332.84
2022-11-09T14:59:29.211Z,100328.56
2022-11-09T15:02:04.037Z,100324.25
2022-11-09T15:04:31.751Z,100322.88
2022-11-09T15:07:02.349Z,100332.88
2022-11-09T15:09:34.146Z,100330.72
2022-11-09T15:12:01.688Z,100326.91
2022-11-09T15:14:30.713Z,100316.09
2022-11-09T15:17:02.989Z,100323.31
2022-11-09T15:19:32.587Z,100329.66
2022-11-09T15:22:00.505Z,100329.50
2022-11-09T15:24:29.543Z,100323.22
2022-11-09T15:26:58.026Z,100315.25
2022-11-09T15:29:31.981Z,100317.81
2022-11-09T15:32:02.936Z,100319.47
2022-11-09T15:34:34.287Z,100321.06
2022-11-09T15:37:01.793Z,100321.81
2022-11-09T15:39:29.452Z,100323.06
2022-11-09T15:41:57.681Z,100324.22
2022-11-09T15:44:25.156Z,100322.59
2022-11-09T15:46:54.272Z,100323.03
2022-11-09T15:49:25.208Z,100332.44
2022-11-09T15:51:53.507Z,100334.06
2022-11-09T15:54:21.061Z,100334.88
2022-11-09T15:56:48.724Z,100334.00
2022-11-09T15:59:20.691Z,100335.16
2022-11-09T16:01:48.374Z,100337.84
2022-11-09T16:04:15.991Z,100338.88
2022-11-09T16:06:46.838Z,100333.00
2022-11-09T16:09:14.803Z,100342.66
2022-11-09T16:11:42.293Z,100344.31
2022-11-09T16:14:09.853Z,100343.25
2022-11-09T16:16:37.328Z,100351.03
2022-11-09T16:19:05.023Z,100348.34
2022-11-09T16:21:32.503Z,100349.38
2022-11-09T16:24:01.344Z,100341.22
2022-11-09T16:26:28.872Z,100347.78
2022-11-09T16:28:56.372Z,100333.50
2022-11-09T16:31:50.187Z,100337.03
2022-11-09T16:34:11.339Z,100344.53
2022-11-09T16:36:46.455Z,100346.16
2022-11-09T16:39:17.912Z,100349.09
2022-11-09T16:41:48.016Z,100352.50
2022-11-09T16:44:16.932Z,100358.13
2022-11-09T16:46:46.559Z,100357.69
2022-11-09T16:49:14.314Z,100349.59
2022-11-09T16:51:41.836Z,100357.16
2022-11-09T16:54:09.291Z,100362.03
2022-11-09T16:56:38.203Z,100365.03
2022-11-09T16:59:05.742Z,100366.38
2022-11-09T17:01:33.719Z,100367.22
2022-11-09T17:04:03.048Z,100377.75
2022-11-09T17:06:30.541Z,100370.44
2022-11-09T17:08:58.132Z,100379.88
2022-11-09T17:11:25.806Z,100377.19
2022-11-09T17:13:58.272Z,100376.66
2022-11-09T17:16:26.176Z,100375.59
2022-11-09T17:18:54.544Z,100377.47
2022-11-09T17:21:22.473Z,100376.66
2022-11-09T17:23:50.847Z,100381.50
2022-11-09T17:26:18.913Z,100382.81
2022-11-09T17:28:46.368Z,100382.59
2022-11-09T17:31:16.714Z,100386.94
2022-11-09T17:33:44.871Z,100393.63
2022-11-09T17:36:14.571Z,100385.28
2022-11-09T17:38:42.049Z,100388.00
2022-11-09T17:41:11.177Z,100393.69
2022-11-09T17:43:40.883Z,100392.88
2022-11-09T17:46:10.355Z,100402.09
2022-11-09T17:48:40.486Z,100408.03
2022-11-09T17:51:12.708Z,100402.59
2022-11-09T17:53:40.391Z,100404.81
2022-11-09T17:56:09.683Z,100405.81
2022-11-09T17:58:39.956Z,100410.19
2022-11-09T18:01:08.450Z,100421.31
2022-11-09T18:03:37.226Z,100420.47
2022-11-09T18:06:10.980Z,100422.66
2022-11-09T18:08:38.525Z,100431.84
2022-11-09T18:11:06.375Z,100436.41
2022-11-09T18:13:33.829Z,100426.72
2022-11-09T18:16:06.364Z,100435.09
2022-11-09T18:18:34.105Z,100438.59
2022-11-09T18:21:07.752Z,100436.16
2022-11-09T18:23:36.052Z,100443.72
2022-11-09T18:28:56.593Z,100455.13
2022-11-09T18:31:24.104Z,100454.53
2022-11-09T18:33:51.660Z,100452.94
2022-11-09T18:36:21.975Z,100448.59
2022-11-09T18:38:51.715Z,100453.47
2022-11-09T18:41:22.505Z,100455.09
2022-11-09T18:43:51.059Z,100456.72
2022-11-09T18:46:19.869Z,100452.94
2022-11-09T18:48:51.330Z,100452.41
2022-11-09T18:51:20.589Z,100458.34
2022-11-09T18:53:49.059Z,100459.16
2022-11-09T18:56:21.439Z,100464.28
2022-11-09T18:58:49.921Z,100464.84
2022-11-09T19:01:17.650Z,100459.44
2022-11-09T19:03:45.350Z,100467.00
2022-11-09T19:06:14.548Z,100474.03
2022-11-09T19:09:00.904Z,100478.09
2022-11-09T19:11:29.880Z,100480.53
2022-11-09T19:13:57.358Z,100490.50
2022-11-09T19:16:25.730Z,100489.19
2022-11-09T19:18:53.296Z,100493.50
2022-11-09T19:21:30.130Z,100494.06
2022-11-09T19:23:58.954Z,100492.94
2022-11-09T19:26:26.410Z,100498.63
2022-11-09T19:28:53.886Z,100503.78
2022-11-09T19:31:23.239Z,100506.50
2022-11-09T19:33:50.864Z,100510.53
2022-11-09T19:36:34.316Z,100508.59
2022-11-09T19:39:03.530Z,100509.97
2022-11-09T19:41:31.008Z,100515.13
2022-11-09T19:43:59.275Z,100516.22
2022-11-09T19:46:27.267Z,100521.09
2022-11-09T19:48:54.810Z,100520.00
2022-11-09T19:51:22.386Z,100519.22
2022-11-09T19:53:51.162Z,100520.28
2022-11-09T19:56:20.985Z,100532.47
2022-11-09T19:58:50.064Z,100529.75
2022-11-09T20:01:17.991Z,100531.34
2022-11-09T20:03:45.500Z,100530.84
2022-11-09T20:06:13.128Z,100539.75
2022-11-09T20:08:40.778Z,100543.78
2022-11-09T20:11:09.648Z,100552.72
2022-11-09T20:13:39.342Z,100547.59
2022-11-09T20:16:09.493Z,100552.47
2022-11-09T20:18:37.583Z,100558.13
2022-11-09T20:21:07.131Z,100552.47
2022-11-09T20:23:34.599Z,100563.81
2022-11-09T20:26:05.536Z,100560.00
2022-11-09T20:28:33.262Z,100560.56
2022-11-09T20:31:03.958Z,100573.00
2022-11-09T20:33:31.403Z,100576.78
2022-11-09T20:35:58.873Z,100580.03
2022-11-09T20:38:26.315Z,100590.84
2022-11-09T20:40:55.154Z,100593.78
2022-11-09T20:43:22.881Z,100615.44
2022-11-09T20:45:50.664Z,100617.28
2022-11-09T20:48:47.072Z,100612.47
2022-11-09T20:51:09.368Z,100621.38
2022-11-09T20:53:37.223Z,100617.59
2022-11-09T20:56:05.231Z,100628.66
2022-11-09T20:58:32.766Z,100649.19
2022-11-09T21:01:02.100Z,100641.31
2022-11-09T21:03:31.217Z,100642.44
2022-11-09T21:05:59.503Z,100645.41
2022-11-09T21:08:27.020Z,100647.81
2022-11-09T21:10:54.909Z,100654.59
2022-11-09T21:13:23.184Z,100650.81
2022-11-09T21:15:50.621Z,100653.81
2022-11-09T21:18:18.254Z,100658.41
2022-11-09T21:20:47.175Z,100656.53
2022-11-09T21:23:32.386Z,100668.72
2022-11-09T21:26:18.123Z,100660.63
2022-11-09T21:29:03.371Z,100673.28
2022-11-09T21:31:30.810Z,100680.59
2022-11-09T21:33:58.295Z,100682.75
2022-11-09T21:36:27.089Z,100673.53
2022-11-09T21:38:54.547Z,100678.41
2022-11-09T21:41:40.127Z,100684.38
2022-11-09T21:44:12.435Z,100695.16
2022-11-09T21:46:41.154Z,100693.78
2022-11-09T21:49:10.173Z,100696.22
2022-11-09T21:51:40.155Z,100707.59
2022-11-09T21:54:08.591Z,100698.38
2022-11-09T21:56:36.255Z,100706.19
2022-11-09T21:59:03.881Z,100702.66
2022-11-09T22:01:31.931Z,100707.28
2022-11-09T22:03:59.642Z,100712.94
2022-11-09T22:06:27.558Z,100712.41
2022-11-09T22:08:56.337Z,100728.66
2022-11-09T22:11:45.829Z,100717.47
2022-11-09T22:14:31.183Z,100727.00
2022-11-09T22:16:58.792Z,100734.03
2022-11-09T22:19:43.764Z,100734.19
2022-11-09T22:22:11.480Z,100731.97
2022-11-09T22:24:40.454Z,100738.28
2022-11-09T22:27:07.956Z,100754.50
2022-11-09T22:29:35.534Z,100749.44
2022-11-09T22:32:03.068Z,100761.03
2022-11-09T22:34:30.717Z,100758.28
2022-11-09T22:36:58.264Z,100749.59
2022-11-09T22:39:25.837Z,100766.00
2022-11-09T22:41:54.770Z,100765.50
2022-11-09T22:44:22.305Z,100765.81
2022-11-09T22:46:49.887Z,100773.94
2022-11-09T22:49:18.126Z,100775.81
2022-11-09T22:51:45.667Z,100770.72
2022-11-09T22:54:13.584Z,100781.03
2022-11-09T22:56:41.070Z,100775.38
2022-11-09T22:59:09.948Z,100774.53
2022-11-09T23:01:37.436Z,100778.78
2022-11-09T23:04:05.242Z,100779.00
2022-11-09T23:06:33.520Z,100784.44
2022-11-09T23:09:01.040Z,100789.72
2022-11-09T23:11:28.503Z,100781.81
2022-11-09T23:13:56.672Z,100789.41
2022-11-09T23:16:27.708Z,100789.13
2022-11-09T23:18:54.702Z,100783.66
2022-11-09T23:21:24.579Z,100808.78
2022-11-09T23:23:52.774Z,100799.81
2022-11-09T23:26:20.238Z,100800.16
2022-11-09T23:28:47.762Z,100812.69
2022-11-09T23:31:16.936Z,100813.16
2022-11-09T23:33:45.933Z,100817.50
2022-11-09T23:36:13.481Z,100829.63
2022-11-09T23:38:41.816Z,100826.94
2022-11-09T23:41:11.548Z,100829.69
2022-11-09T23:43:39.212Z,100842.88
2022-11-09T23:46:08.607Z,100850.63
2022-11-09T23:48:36.038Z,100840.56
2022-11-09T23:51:05.542Z,100844.34
2022-11-09T23:53:33.179Z,100838.91
2022-11-09T23:56:03.477Z,100845.44
2022-11-09T23:58:31.483Z,100850.13
